sensor_id;sensor_type;location;lat;lon;timestamp;P1;durP1;ratioP1;P2;durP2;ratioP2
74799;SDS011;63326;45.088;7.658;2023-06-14T00:00:45;8.55;;;4.15;;
74799;SDS011;63326;45.088;7.658;2023-06-14T00:03:12;9.45;;;4.80;;
74799;SDS011;63326;45.088;7.658;2023-06-14T00:05:44;8.23;;;4.90;;
74799;SDS011;63326;45.088;7.658;2023-06-14T00:08:12;7.25;;;3.95;;
74799;SDS011;63326;45.088;7.658;2023-06-14T00:10:40;8.55;;;5.78;;
74799;SDS011;63326;45.088;7.658;2023-06-14T00:13:08;7.07;;;4.22;;
74799;SDS011;63326;45.088;7.658;2023-06-14T00:15:35;7.57;;;4.00;;
74799;SDS011;63326;45.088;7.658;2023-06-14T00:18:02;7.65;;;4.35;;
74799;SDS011;63326;45.088;7.658;2023-06-14T00:20:30;5.45;;;3.25;;
74799;SDS011;63326;45.088;7.658;2023-06-14T00:22:59;6.38;;;4.43;;
74799;SDS011;63326;45.088;7.658;2023-06-14T00:25:26;8.18;;;4.32;;
74799;SDS011;63326;45.088;7.658;2023-06-14T00:27:56;7.00;;;3.40;;
74799;SDS011;63326;45.088;7.658;2023-06-14T00:30:23;6.47;;;3.80;;
74799;SDS011;63326;45.088;7.658;2023-06-14T00:35:18;8.68;;;4.13;;
74799;SDS011;63326;45.088;7.658;2023-06-14T00:37:45;7.60;;;3.42;;
74799;SDS011;63326;45.088;7.658;2023-06-14T00:40:11;6.90;;;3.97;;
74799;SDS011;63326;45.088;7.658;2023-06-14T00:42:39;5.78;;;3.72;;
74799;SDS011;63326;45.088;7.658;2023-06-14T00:45:06;6.70;;;3.75;;
74799;SDS011;63326;45.088;7.658;2023-06-14T00:47:33;5.57;;;3.58;;
74799;SDS011;63326;45.088;7.658;2023-06-14T00:50:01;5.50;;;3.25;;
74799;SDS011;63326;45.088;7.658;2023-06-14T00:52:28;4.72;;;2.70;;
74799;SDS011;63326;45.088;7.658;2023-06-14T00:57:22;5.88;;;3.17;;
74799;SDS011;63326;45.088;7.658;2023-06-14T00:59:50;4.10;;;2.60;;
74799;SDS011;63326;45.088;7.658;2023-06-14T01:02:17;8.65;;;3.03;;
74799;SDS011;63326;45.088;7.658;2023-06-14T01:04:48;5.10;;;2.40;;
74799;SDS011;63326;45.088;7.658;2023-06-14T01:07:25;4.53;;;2.47;;
74799;SDS011;63326;45.088;7.658;2023-06-14T01:13:03;4.50;;;2.40;;
74799;SDS011;63326;45.088;7.658;2023-06-14T01:15:35;4.68;;;2.30;;
74799;SDS011;63326;45.088;7.658;2023-06-14T01:18:04;4.57;;;2.60;;
74799;SDS011;63326;45.088;7.658;2023-06-14T01:20:33;6.72;;;2.67;;
74799;SDS011;63326;45.088;7.658;2023-06-14T01:23:03;8.07;;;2.50;;
74799;SDS011;63326;45.088;7.658;2023-06-14T01:25:30;4.70;;;2.47;;
74799;SDS011;63326;45.088;7.658;2023-06-14T01:28:01;4.13;;;2.58;;
74799;SDS011;63326;45.088;7.658;2023-06-14T01:33:04;3.47;;;1.60;;
74799;SDS011;63326;45.088;7.658;2023-06-14T01:35:31;4.72;;;2.33;;
74799;SDS011;63326;45.088;7.658;2023-06-14T01:38:00;3.78;;;2.50;;
74799;SDS011;63326;45.088;7.658;2023-06-14T01:40:29;3.97;;;2.28;;
74799;SDS011;63326;45.088;7.658;2023-06-14T01:42:57;4.50;;;2.22;;
74799;SDS011;63326;45.088;7.658;2023-06-14T01:45:25;4.40;;;2.20;;
74799;SDS011;63326;45.088;7.658;2023-06-14T01:47:56;4.88;;;2.20;;
74799;SDS011;63326;45.088;7.658;2023-06-14T01:50:23;4.22;;;2.15;;
74799;SDS011;63326;45.088;7.658;2023-06-14T01:52:50;6.35;;;3.05;;
74799;SDS011;63326;45.088;7.658;2023-06-14T01:55:16;3.90;;;1.88;;
74799;SDS011;63326;45.088;7.658;2023-06-14T01:57:44;6.60;;;2.42;;
74799;SDS011;63326;45.088;7.658;2023-06-14T02:00:11;7.35;;;2.15;;
74799;SDS011;63326;45.088;7.658;2023-06-14T02:02:39;5.68;;;2.40;;
74799;SDS011;63326;45.088;7.658;2023-06-14T02:05:06;4.25;;;2.58;;
74799;SDS011;63326;45.088;7.658;2023-06-14T02:07:34;4.07;;;2.20;;
74799;SDS011;63326;45.088;7.658;2023-06-14T02:10:00;4.43;;;2.65;;
74799;SDS011;63326;45.088;7.658;2023-06-14T02:12:27;5.63;;;2.83;;
74799;SDS011;63326;45.088;7.658;2023-06-14T02:14:56;4.10;;;2.53;;
74799;SDS011;63326;45.088;7.658;2023-06-14T02:19:51;3.70;;;2.05;;
74799;SDS011;63326;45.088;7.658;2023-06-14T02:22:18;5.28;;;2.53;;
74799;SDS011;63326;45.088;7.658;2023-06-14T02:24:47;4.22;;;3.03;;
74799;SDS011;63326;45.088;7.658;2023-06-14T02:27:16;4.70;;;2.55;;
74799;SDS011;63326;45.088;7.658;2023-06-14T02:29:43;4.35;;;2.45;;
74799;SDS011;63326;45.088;7.658;2023-06-14T02:32:09;3.47;;;1.95;;
74799;SDS011;63326;45.088;7.658;2023-06-14T02:34:37;4.53;;;2.25;;
74799;SDS011;63326;45.088;7.658;2023-06-14T02:37:07;5.80;;;2.67;;
74799;SDS011;63326;45.088;7.658;2023-06-14T02:39:34;5.78;;;2.45;;
74799;SDS011;63326;45.088;7.658;2023-06-14T02:42:02;6.60;;;2.42;;
74799;SDS011;63326;45.088;7.658;2023-06-14T02:44:29;4.80;;;2.50;;
74799;SDS011;63326;45.088;7.658;2023-06-14T02:46:58;4.55;;;2.90;;
74799;SDS011;63326;45.088;7.658;2023-06-14T02:49:27;4.88;;;3.15;;
74799;SDS011;63326;45.088;7.658;2023-06-14T02:51:54;4.93;;;3.25;;
74799;SDS011;63326;45.088;7.658;2023-06-14T02:54:20;4.72;;;2.30;;
74799;SDS011;63326;45.088;7.658;2023-06-14T02:56:47;4.88;;;2.38;;
74799;SDS011;63326;45.088;7.658;2023-06-14T02:59:14;3.85;;;2.15;;
74799;SDS011;63326;45.088;7.658;2023-06-14T03:01:41;4.80;;;2.90;;
74799;SDS011;63326;45.088;7.658;2023-06-14T03:04:12;4.80;;;2.83;;
74799;SDS011;63326;45.088;7.658;2023-06-14T03:06:40;4.95;;;2.92;;
74799;SDS011;63326;45.088;7.658;2023-06-14T03:09:11;4.80;;;2.40;;
74799;SDS011;63326;45.088;7.658;2023-06-14T03:11:39;5.80;;;2.25;;
74799;SDS011;63326;45.088;7.658;2023-06-14T03:14:06;4.30;;;2.35;;
74799;SDS011;63326;45.088;7.658;2023-06-14T03:16:35;4.15;;;2.22;;
74799;SDS011;63326;45.088;7.658;2023-06-14T03:19:04;7.45;;;2.60;;
74799;SDS011;63326;45.088;7.658;2023-06-14T03:21:32;6.47;;;3.42;;
74799;SDS011;63326;45.088;7.658;2023-06-14T03:24:02;5.68;;;2.85;;
74799;SDS011;63326;45.088;7.658;2023-06-14T03:26:30;5.38;;;3.33;;
74799;SDS011;63326;45.088;7.658;2023-06-14T03:28:59;6.10;;;2.97;;
74799;SDS011;63326;45.088;7.658;2023-06-14T03:31:28;5.13;;;2.75;;
74799;SDS011;63326;45.088;7.658;2023-06-14T03:34:01;4.70;;;2.97;;
74799;SDS011;63326;45.088;7.658;2023-06-14T03:36:28;4.78;;;2.05;;
74799;SDS011;63326;45.088;7.658;2023-06-14T03:38:55;5.65;;;2.88;;
74799;SDS011;63326;45.088;7.658;2023-06-14T03:41:23;4.50;;;3.03;;
74799;SDS011;63326;45.088;7.658;2023-06-14T03:43:50;5.68;;;2.10;;
74799;SDS011;63326;45.088;7.658;2023-06-14T03:46:17;7.20;;;3.17;;
74799;SDS011;63326;45.088;7.658;2023-06-14T03:48:44;9.18;;;4.57;;
74799;SDS011;63326;45.088;7.658;2023-06-14T03:51:12;6.72;;;3.22;;
74799;SDS011;63326;45.088;7.658;2023-06-14T03:53:39;8.65;;;4.90;;
74799;SDS011;63326;45.088;7.658;2023-06-14T03:58:52;9.82;;;4.75;;
74799;SDS011;63326;45.088;7.658;2023-06-14T04:01:22;8.38;;;4.80;;
74799;SDS011;63326;45.088;7.658;2023-06-14T04:03:53;9.77;;;5.70;;
74799;SDS011;63326;45.088;7.658;2023-06-14T04:06:20;8.48;;;4.95;;
74799;SDS011;63326;45.088;7.658;2023-06-14T04:08:47;9.57;;;5.10;;
74799;SDS011;63326;45.088;7.658;2023-06-14T04:11:15;9.35;;;4.40;;
74799;SDS011;63326;45.088;7.658;2023-06-14T04:13:42;8.82;;;5.00;;
74799;SDS011;63326;45.088;7.658;2023-06-14T04:16:09;8.68;;;4.82;;
74799;SDS011;63326;45.088;7.658;2023-06-14T04:18:36;9.02;;;5.35;;
74799;SDS011;63326;45.088;7.658;2023-06-14T04:21:02;9.98;;;5.75;;
74799;SDS011;63326;45.088;7.658;2023-06-14T04:23:29;8.15;;;5.30;;
74799;SDS011;63326;45.088;7.658;2023-06-14T04:25:56;9.30;;;5.68;;
74799;SDS011;63326;45.088;7.658;2023-06-14T04:28:28;10.20;;;5.97;;
74799;SDS011;63326;45.088;7.658;2023-06-14T04:30:58;10.52;;;5.90;;
74799;SDS011;63326;45.088;7.658;2023-06-14T04:33:30;10.82;;;5.55;;
74799;SDS011;63326;45.088;7.658;2023-06-14T04:35:58;11.95;;;5.25;;
74799;SDS011;63326;45.088;7.658;2023-06-14T04:38:26;11.23;;;6.65;;
74799;SDS011;63326;45.088;7.658;2023-06-14T04:40:55;11.63;;;6.90;;
74799;SDS011;63326;45.088;7.658;2023-06-14T04:43:23;13.27;;;6.47;;
74799;SDS011;63326;45.088;7.658;2023-06-14T04:45:55;10.88;;;5.30;;
74799;SDS011;63326;45.088;7.658;2023-06-14T04:48:23;9.77;;;5.28;;
74799;SDS011;63326;45.088;7.658;2023-06-14T04:50:51;11.70;;;6.63;;
74799;SDS011;63326;45.088;7.658;2023-06-14T04:53:19;9.52;;;5.13;;
74799;SDS011;63326;45.088;7.658;2023-06-14T04:55:52;11.30;;;5.78;;
74799;SDS011;63326;45.088;7.658;2023-06-14T04:58:20;6.57;;;5.38;;
74799;SDS011;63326;45.088;7.658;2023-06-14T05:00:47;8.40;;;4.68;;
74799;SDS011;63326;45.088;7.658;2023-06-14T05:03:13;7.90;;;4.10;;
74799;SDS011;63326;45.088;7.658;2023-06-14T05:05:40;7.88;;;3.90;;
74799;SDS011;63326;45.088;7.658;2023-06-14T05:08:08;9.18;;;4.75;;
74799;SDS011;63326;45.088;7.658;2023-06-14T05:10:36;8.57;;;4.30;;
74799;SDS011;63326;45.088;7.658;2023-06-14T05:13:04;8.27;;;5.07;;
74799;SDS011;63326;45.088;7.658;2023-06-14T05:15:31;6.82;;;4.13;;
74799;SDS011;63326;45.088;7.658;2023-06-14T05:17:58;8.73;;;4.43;;
74799;SDS011;63326;45.088;7.658;2023-06-14T05:20:25;8.57;;;4.50;;
74799;SDS011;63326;45.088;7.658;2023-06-14T05:22:53;7.90;;;4.30;;
74799;SDS011;63326;45.088;7.658;2023-06-14T05:25:20;9.80;;;5.32;;
74799;SDS011;63326;45.088;7.658;2023-06-14T05:27:47;8.20;;;4.53;;
74799;SDS011;63326;45.088;7.658;2023-06-14T05:30:15;10.70;;;5.63;;
74799;SDS011;63326;45.088;7.658;2023-06-14T05:32:42;6.55;;;3.40;;
74799;SDS011;63326;45.088;7.658;2023-06-14T05:35:08;8.15;;;4.75;;
74799;SDS011;63326;45.088;7.658;2023-06-14T05:37:35;7.25;;;3.85;;
74799;SDS011;63326;45.088;7.658;2023-06-14T05:40:02;8.32;;;3.45;;
74799;SDS011;63326;45.088;7.658;2023-06-14T05:42:33;6.15;;;3.05;;
74799;SDS011;63326;45.088;7.658;2023-06-14T05:45:00;7.50;;;3.78;;
74799;SDS011;63326;45.088;7.658;2023-06-14T05:47:27;8.48;;;3.80;;
74799;SDS011;63326;45.088;7.658;2023-06-14T05:49:54;7.70;;;4.00;;
74799;SDS011;63326;45.088;7.658;2023-06-14T05:52:24;6.65;;;4.40;;
74799;SDS011;63326;45.088;7.658;2023-06-14T05:54:51;7.45;;;4.20;;
74799;SDS011;63326;45.088;7.658;2023-06-14T05:57:18;8.93;;;4.07;;
74799;SDS011;63326;45.088;7.658;2023-06-14T05:59:45;10.98;;;5.68;;
74799;SDS011;63326;45.088;7.658;2023-06-14T06:02:11;12.65;;;6.07;;
74799;SDS011;63326;45.088;7.658;2023-06-14T06:04:38;9.75;;;4.90;;
74799;SDS011;63326;45.088;7.658;2023-06-14T06:07:05;12.43;;;5.53;;
74799;SDS011;63326;45.088;7.658;2023-06-14T06:09:32;8.27;;;5.05;;
74799;SDS011;63326;45.088;7.658;2023-06-14T06:11:59;6.07;;;4.03;;
74799;SDS011;63326;45.088;7.658;2023-06-14T06:14:26;7.88;;;4.68;;
74799;SDS011;63326;45.088;7.658;2023-06-14T06:16:54;10.80;;;5.80;;
74799;SDS011;63326;45.088;7.658;2023-06-14T06:19:20;14.15;;;6.43;;
74799;SDS011;63326;45.088;7.658;2023-06-14T06:21:47;13.63;;;7.68;;
74799;SDS011;63326;45.088;7.658;2023-06-14T06:24:14;14.32;;;8.30;;
74799;SDS011;63326;45.088;7.658;2023-06-14T06:26:41;14.05;;;8.23;;
74799;SDS011;63326;45.088;7.658;2023-06-14T06:29:08;14.32;;;7.40;;
74799;SDS011;63326;45.088;7.658;2023-06-14T06:31:35;13.30;;;8.70;;
74799;SDS011;63326;45.088;7.658;2023-06-14T06:34:02;14.48;;;7.70;;
74799;SDS011;63326;45.088;7.658;2023-06-14T06:36:29;12.20;;;7.93;;
74799;SDS011;63326;45.088;7.658;2023-06-14T06:38:55;12.93;;;6.90;;
74799;SDS011;63326;45.088;7.658;2023-06-14T06:41:22;11.60;;;6.78;;
74799;SDS011;63326;45.088;7.658;2023-06-14T06:43:49;11.75;;;8.18;;
74799;SDS011;63326;45.088;7.658;2023-06-14T06:46:16;12.15;;;7.53;;
74799;SDS011;63326;45.088;7.658;2023-06-14T06:48:45;9.45;;;5.07;;
74799;SDS011;63326;45.088;7.658;2023-06-14T06:51:11;12.32;;;5.47;;
74799;SDS011;63326;45.088;7.658;2023-06-14T06:53:41;13.18;;;5.38;;
74799;SDS011;63326;45.088;7.658;2023-06-14T06:56:15;12.50;;;6.07;;
74799;SDS011;63326;45.088;7.658;2023-06-14T06:58:42;10.32;;;7.05;;
74799;SDS011;63326;45.088;7.658;2023-06-14T07:01:09;10.02;;;6.07;;
74799;SDS011;63326;45.088;7.658;2023-06-14T07:03:35;12.73;;;6.88;;
74799;SDS011;63326;45.088;7.658;2023-06-14T07:06:02;11.80;;;6.13;;
74799;SDS011;63326;45.088;7.658;2023-06-14T07:08:29;9.35;;;5.50;;
74799;SDS011;63326;45.088;7.658;2023-06-14T07:10:56;10.77;;;5.95;;
74799;SDS011;63326;45.088;7.658;2023-06-14T07:13:22;11.65;;;5.90;;
74799;SDS011;63326;45.088;7.658;2023-06-14T07:15:49;11.10;;;6.32;;
74799;SDS011;63326;45.088;7.658;2023-06-14T07:18:16;13.60;;;6.28;;
74799;SDS011;63326;45.088;7.658;2023-06-14T07:20:42;11.05;;;5.70;;
74799;SDS011;63326;45.088;7.658;2023-06-14T07:23:09;14.10;;;6.50;;
74799;SDS011;63326;45.088;7.658;2023-06-14T07:25:37;9.63;;;5.20;;
74799;SDS011;63326;45.088;7.658;2023-06-14T07:28:04;10.23;;;6.30;;
74799;SDS011;63326;45.088;7.658;2023-06-14T07:30:30;10.77;;;6.45;;
74799;SDS011;63326;45.088;7.658;2023-06-14T07:32:57;9.52;;;5.95;;
74799;SDS011;63326;45.088;7.658;2023-06-14T07:35:24;11.00;;;5.70;;
74799;SDS011;63326;45.088;7.658;2023-06-14T07:37:51;9.88;;;6.57;;
74799;SDS011;63326;45.088;7.658;2023-06-14T07:40:17;17.40;;;7.82;;
74799;SDS011;63326;45.088;7.658;2023-06-14T07:42:44;15.80;;;7.43;;
74799;SDS011;63326;45.088;7.658;2023-06-14T07:45:13;10.13;;;6.88;;
74799;SDS011;63326;45.088;7.658;2023-06-14T07:47:40;11.88;;;7.93;;
74799;SDS011;63326;45.088;7.658;2023-06-14T07:50:07;10.75;;;5.95;;
74799;SDS011;63326;45.088;7.658;2023-06-14T07:52:36;13.90;;;7.28;;
74799;SDS011;63326;45.088;7.658;2023-06-14T07:55:03;12.27;;;6.93;;
74799;SDS011;63326;45.088;7.658;2023-06-14T07:57:30;11.20;;;7.20;;
74799;SDS011;63326;45.088;7.658;2023-06-14T07:59:57;12.15;;;5.60;;
74799;SDS011;63326;45.088;7.658;2023-06-14T08:02:24;10.80;;;5.40;;
74799;SDS011;63326;45.088;7.658;2023-06-14T08:04:51;9.95;;;5.70;;
74799;SDS011;63326;45.088;7.658;2023-06-14T08:07:18;9.68;;;5.75;;
74799;SDS011;63326;45.088;7.658;2023-06-14T08:12:13;9.00;;;5.65;;
74799;SDS011;63326;45.088;7.658;2023-06-14T08:14:39;9.55;;;5.20;;
74799;SDS011;63326;45.088;7.658;2023-06-14T08:17:06;8.43;;;5.32;;
74799;SDS011;63326;45.088;7.658;2023-06-14T08:19:33;13.02;;;7.30;;
74799;SDS011;63326;45.088;7.658;2023-06-14T08:22:00;8.70;;;4.50;;
74799;SDS011;63326;45.088;7.658;2023-06-14T08:24:26;7.95;;;5.78;;
74799;SDS011;63326;45.088;7.658;2023-06-14T08:26:54;9.60;;;5.75;;
74799;SDS011;63326;45.088;7.658;2023-06-14T08:29:20;10.15;;;5.90;;
74799;SDS011;63326;45.088;7.658;2023-06-14T08:31:47;8.25;;;6.05;;
74799;SDS011;63326;45.088;7.658;2023-06-14T08:34:14;7.13;;;4.32;;
74799;SDS011;63326;45.088;7.658;2023-06-14T08:36:41;10.18;;;6.10;;
74799;SDS011;63326;45.088;7.658;2023-06-14T08:39:08;8.65;;;6.03;;
74799;SDS011;63326;45.088;7.658;2023-06-14T08:41:35;9.88;;;5.07;;
74799;SDS011;63326;45.088;7.658;2023-06-14T08:44:02;6.90;;;4.53;;
74799;SDS011;63326;45.088;7.658;2023-06-14T08:46:29;9.63;;;5.10;;
74799;SDS011;63326;45.088;7.658;2023-06-14T08:48:59;7.72;;;5.97;;
74799;SDS011;63326;45.088;7.658;2023-06-14T08:51:27;7.10;;;5.05;;
74799;SDS011;63326;45.088;7.658;2023-06-14T08:54:00;8.75;;;4.93;;
74799;SDS011;63326;45.088;7.658;2023-06-14T08:56:28;8.68;;;5.70;;
74799;SDS011;63326;45.088;7.658;2023-06-14T08:58:56;8.10;;;4.68;;
74799;SDS011;63326;45.088;7.658;2023-06-14T09:01:27;7.57;;;5.00;;
74799;SDS011;63326;45.088;7.658;2023-06-14T09:06:23;10.70;;;5.57;;
74799;SDS011;63326;45.088;7.658;2023-06-14T09:08:55;9.65;;;5.70;;
74799;SDS011;63326;45.088;7.658;2023-06-14T09:11:23;11.75;;;5.05;;
74799;SDS011;63326;45.088;7.658;2023-06-14T09:13:52;7.95;;;4.78;;
74799;SDS011;63326;45.088;7.658;2023-06-14T09:16:18;7.32;;;5.13;;
74799;SDS011;63326;45.088;7.658;2023-06-14T09:18:46;8.60;;;5.55;;
74799;SDS011;63326;45.088;7.658;2023-06-14T09:21:16;8.00;;;6.15;;
74799;SDS011;63326;45.088;7.658;2023-06-14T09:23:45;8.32;;;4.88;;
74799;SDS011;63326;45.088;7.658;2023-06-14T09:26:28;13.38;;;7.00;;
74799;SDS011;63326;45.088;7.658;2023-06-14T09:28:54;10.70;;;6.72;;
74799;SDS011;63326;45.088;7.658;2023-06-14T09:31:21;10.93;;;6.03;;
74799;SDS011;63326;45.088;7.658;2023-06-14T09:33:49;8.38;;;4.85;;
74799;SDS011;63326;45.088;7.658;2023-06-14T09:36:17;7.60;;;5.05;;
74799;SDS011;63326;45.088;7.658;2023-06-14T09:38:54;11.30;;;5.93;;
74799;SDS011;63326;45.088;7.658;2023-06-14T09:41:41;7.32;;;4.50;;
74799;SDS011;63326;45.088;7.658;2023-06-14T09:44:09;8.85;;;5.45;;
74799;SDS011;63326;45.088;7.658;2023-06-14T09:46:44;9.05;;;4.93;;
74799;SDS011;63326;45.088;7.658;2023-06-14T09:49:11;6.38;;;4.38;;
74799;SDS011;63326;45.088;7.658;2023-06-14T09:51:45;8.40;;;5.47;;
74799;SDS011;63326;45.088;7.658;2023-06-14T09:54:15;8.95;;;5.18;;
74799;SDS011;63326;45.088;7.658;2023-06-14T09:56:46;9.23;;;4.72;;
74799;SDS011;63326;45.088;7.658;2023-06-14T09:59:16;7.88;;;4.68;;
74799;SDS011;63326;45.088;7.658;2023-06-14T10:01:53;8.00;;;5.03;;
74799;SDS011;63326;45.088;7.658;2023-06-14T10:04:24;8.45;;;4.45;;
74799;SDS011;63326;45.088;7.658;2023-06-14T10:06:53;8.27;;;5.50;;
74799;SDS011;63326;45.088;7.658;2023-06-14T10:09:21;8.10;;;4.65;;
74799;SDS011;63326;45.088;7.658;2023-06-14T10:14:15;7.93;;;4.60;;
74799;SDS011;63326;45.088;7.658;2023-06-14T10:17:00;6.90;;;4.32;;
74799;SDS011;63326;45.088;7.658;2023-06-14T10:19:34;7.95;;;4.10;;
74799;SDS011;63326;45.088;7.658;2023-06-14T10:22:17;7.53;;;4.45;;
74799;SDS011;63326;45.088;7.658;2023-06-14T10:24:49;10.40;;;4.78;;
74799;SDS011;63326;45.088;7.658;2023-06-14T10:27:16;9.48;;;5.22;;
74799;SDS011;63326;45.088;7.658;2023-06-14T10:32:21;10.45;;;5.53;;
74799;SDS011;63326;45.088;7.658;2023-06-14T10:34:53;10.98;;;6.20;;
74799;SDS011;63326;45.088;7.658;2023-06-14T10:37:22;9.90;;;5.95;;
74799;SDS011;63326;45.088;7.658;2023-06-14T10:39:51;9.75;;;6.05;;
74799;SDS011;63326;45.088;7.658;2023-06-14T10:42:17;10.25;;;5.57;;
74799;SDS011;63326;45.088;7.658;2023-06-14T10:44:49;11.00;;;5.50;;
74799;SDS011;63326;45.088;7.658;2023-06-14T10:47:23;8.18;;;5.45;;
74799;SDS011;63326;45.088;7.658;2023-06-14T10:49:54;10.73;;;5.85;;
74799;SDS011;63326;45.088;7.658;2023-06-14T10:52:24;11.48;;;6.50;;
74799;SDS011;63326;45.088;7.658;2023-06-14T10:57:39;9.05;;;6.45;;
74799;SDS011;63326;45.088;7.658;2023-06-14T11:00:11;11.38;;;6.07;;
74799;SDS011;63326;45.088;7.658;2023-06-14T11:05:52;7.28;;;4.85;;
74799;SDS011;63326;45.088;7.658;2023-06-14T11:10:50;10.55;;;6.38;;
74799;SDS011;63326;45.088;7.658;2023-06-14T11:13:20;9.10;;;4.50;;
74799;SDS011;63326;45.088;7.658;2023-06-14T11:15:51;12.98;;;5.63;;
74799;SDS011;63326;45.088;7.658;2023-06-14T11:18:21;10.10;;;6.57;;
74799;SDS011;63326;45.088;7.658;2023-06-14T11:20:50;7.40;;;4.97;;
74799;SDS011;63326;45.088;7.658;2023-06-14T11:23:17;8.88;;;5.85;;
74799;SDS011;63326;45.088;7.658;2023-06-14T11:25:49;11.23;;;6.43;;
74799;SDS011;63326;45.088;7.658;2023-06-14T11:28:17;8.35;;;5.75;;
74799;SDS011;63326;45.088;7.658;2023-06-14T11:30:46;8.75;;;5.75;;
74799;SDS011;63326;45.088;7.658;2023-06-14T11:33:16;7.60;;;4.75;;
74799;SDS011;63326;45.088;7.658;2023-06-14T11:38:13;7.22;;;5.18;;
74799;SDS011;63326;45.088;7.658;2023-06-14T11:40:40;7.63;;;5.20;;
74799;SDS011;63326;45.088;7.658;2023-06-14T11:43:06;8.02;;;5.35;;
74799;SDS011;63326;45.088;7.658;2023-06-14T11:45:34;7.97;;;5.38;;
74799;SDS011;63326;45.088;7.658;2023-06-14T11:48:01;7.63;;;5.32;;
74799;SDS011;63326;45.088;7.658;2023-06-14T11:55:47;7.47;;;5.72;;
74799;SDS011;63326;45.088;7.658;2023-06-14T11:58:14;8.68;;;5.18;;
74799;SDS011;63326;45.088;7.658;2023-06-14T12:00:41;7.88;;;5.30;;
74799;SDS011;63326;45.088;7.658;2023-06-14T12:03:08;7.88;;;5.65;;
74799;SDS011;63326;45.088;7.658;2023-06-14T12:05:35;5.63;;;4.35;;
74799;SDS011;63326;45.088;7.658;2023-06-14T12:08:03;8.02;;;6.68;;
74799;SDS011;63326;45.088;7.658;2023-06-14T12:10:39;8.35;;;5.68;;
74799;SDS011;63326;45.088;7.658;2023-06-14T12:13:07;7.60;;;5.35;;
74799;SDS011;63326;45.088;7.658;2023-06-14T12:15:34;9.30;;;6.93;;
74799;SDS011;63326;45.088;7.658;2023-06-14T12:18:01;7.25;;;5.28;;
74799;SDS011;63326;45.088;7.658;2023-06-14T12:20:33;8.27;;;7.28;;
74799;SDS011;63326;45.088;7.658;2023-06-14T12:23:02;8.55;;;6.35;;
74799;SDS011;63326;45.088;7.658;2023-06-14T12:25:31;6.85;;;4.22;;
74799;SDS011;63326;45.088;7.658;2023-06-14T12:27:59;6.07;;;5.13;;
74799;SDS011;63326;45.088;7.658;2023-06-14T12:30:29;7.60;;;5.50;;
74799;SDS011;63326;45.088;7.658;2023-06-14T12:32:56;5.35;;;4.85;;
74799;SDS011;63326;45.088;7.658;2023-06-14T12:35:24;5.88;;;4.25;;
74799;SDS011;63326;45.088;7.658;2023-06-14T12:37:51;5.93;;;3.95;;
74799;SDS011;63326;45.088;7.658;2023-06-14T12:40:21;7.35;;;6.20;;
74799;SDS011;63326;45.088;7.658;2023-06-14T12:42:47;5.93;;;5.05;;
74799;SDS011;63326;45.088;7.658;2023-06-14T12:45:14;6.53;;;4.85;;
74799;SDS011;63326;45.088;7.658;2023-06-14T12:47:42;6.10;;;3.72;;
74799;SDS011;63326;45.088;7.658;2023-06-14T12:50:09;5.30;;;4.80;;
74799;SDS011;63326;45.088;7.658;2023-06-14T12:52:36;5.30;;;4.35;;
74799;SDS011;63326;45.088;7.658;2023-06-14T12:55:03;4.78;;;3.67;;
74799;SDS011;63326;45.088;7.658;2023-06-14T12:57:31;5.63;;;4.63;;
74799;SDS011;63326;45.088;7.658;2023-06-14T12:59:59;7.55;;;6.85;;
74799;SDS011;63326;45.088;7.658;2023-06-14T13:02:26;5.15;;;3.78;;
74799;SDS011;63326;45.088;7.658;2023-06-14T13:04:53;7.38;;;6.82;;
74799;SDS011;63326;45.088;7.658;2023-06-14T13:07:20;5.93;;;5.43;;
74799;SDS011;63326;45.088;7.658;2023-06-14T13:09:47;4.82;;;4.03;;
74799;SDS011;63326;45.088;7.658;2023-06-14T13:12:13;6.75;;;6.13;;
74799;SDS011;63326;45.088;7.658;2023-06-14T13:14:40;4.32;;;3.50;;
74799;SDS011;63326;45.088;7.658;2023-06-14T13:17:10;6.65;;;6.13;;
74799;SDS011;63326;45.088;7.658;2023-06-14T13:19:37;5.68;;;5.18;;
74799;SDS011;63326;45.088;7.658;2023-06-14T13:22:04;3.97;;;3.53;;
74799;SDS011;63326;45.088;7.658;2023-06-14T13:24:31;4.95;;;4.43;;
74799;SDS011;63326;45.088;7.658;2023-06-14T13:26:58;4.32;;;3.75;;
74799;SDS011;63326;45.088;7.658;2023-06-14T13:29:25;5.78;;;5.25;;
74799;SDS011;63326;45.088;7.658;2023-06-14T13:31:53;6.75;;;6.20;;
74799;SDS011;63326;45.088;7.658;2023-06-14T13:34:20;5.57;;;5.07;;
74799;SDS011;63326;45.088;7.658;2023-06-14T13:36:48;5.45;;;5.05;;
74799;SDS011;63326;45.088;7.658;2023-06-14T13:39:16;6.47;;;5.93;;
74799;SDS011;63326;45.088;7.658;2023-06-14T13:41:42;3.70;;;2.92;;
74799;SDS011;63326;45.088;7.658;2023-06-14T13:44:09;5.28;;;4.78;;
74799;SDS011;63326;45.088;7.658;2023-06-14T13:46:42;6.05;;;3.15;;
74799;SDS011;63326;45.088;7.658;2023-06-14T13:49:09;4.75;;;4.25;;
74799;SDS011;63326;45.088;7.658;2023-06-14T13:51:37;6.20;;;5.18;;
74799;SDS011;63326;45.088;7.658;2023-06-14T13:54:04;3.92;;;2.38;;
74799;SDS011;63326;45.088;7.658;2023-06-14T13:56:31;4.30;;;2.58;;
74799;SDS011;63326;45.088;7.658;2023-06-14T13:58:58;4.57;;;3.20;;
74799;SDS011;63326;45.088;7.658;2023-06-14T14:01:26;3.85;;;3.30;;
74799;SDS011;63326;45.088;7.658;2023-06-14T14:03:55;4.63;;;3.55;;
74799;SDS011;63326;45.088;7.658;2023-06-14T14:06:22;4.43;;;3.20;;
74799;SDS011;63326;45.088;7.658;2023-06-14T14:11:16;4.55;;;3.38;;
74799;SDS011;63326;45.088;7.658;2023-06-14T14:16:09;4.00;;;3.00;;
74799;SDS011;63326;45.088;7.658;2023-06-14T14:18:37;3.88;;;2.40;;
74799;SDS011;63326;45.088;7.658;2023-06-14T14:21:04;4.18;;;3.13;;
74799;SDS011;63326;45.088;7.658;2023-06-14T14:23:31;4.13;;;3.67;;
74799;SDS011;63326;45.088;7.658;2023-06-14T14:25:58;4.88;;;3.38;;
74799;SDS011;63326;45.088;7.658;2023-06-14T14:28:30;3.58;;;2.78;;
74799;SDS011;63326;45.088;7.658;2023-06-14T14:30:58;4.22;;;3.20;;
74799;SDS011;63326;45.088;7.658;2023-06-14T14:33:26;4.07;;;3.03;;
74799;SDS011;63326;45.088;7.658;2023-06-14T14:35:54;3.83;;;2.72;;
74799;SDS011;63326;45.088;7.658;2023-06-14T15:40:49;3.65;;;1.90;;
74799;SDS011;63326;45.088;7.658;2023-06-14T15:43:17;4.15;;;1.95;;
74799;SDS011;63326;45.088;7.658;2023-06-14T15:45:44;4.65;;;2.22;;
74799;SDS011;63326;45.088;7.658;2023-06-14T15:48:11;3.27;;;1.90;;
74799;SDS011;63326;45.088;7.658;2023-06-14T15:52:34;2.55;;;1.33;;
74799;SDS011;63326;45.088;7.658;2023-06-14T15:55:01;3.97;;;2.05;;
74799;SDS011;63326;45.088;7.658;2023-06-14T15:57:29;7.22;;;3.53;;
74799;SDS011;63326;45.088;7.658;2023-06-14T16:02:23;4.40;;;2.25;;
74799;SDS011;63326;45.088;7.658;2023-06-14T16:06:52;3.92;;;1.80;;
74799;SDS011;63326;45.088;7.658;2023-06-14T16:09:19;3.55;;;1.70;;
74799;SDS011;63326;45.088;7.658;2023-06-14T16:11:46;3.33;;;1.67;;
74799;SDS011;63326;45.088;7.658;2023-06-14T16:14:14;3.22;;;1.50;;
74799;SDS011;63326;45.088;7.658;2023-06-14T16:16:40;3.80;;;2.20;;
74799;SDS011;63326;45.088;7.658;2023-06-14T16:19:10;3.78;;;1.90;;
74799;SDS011;63326;45.088;7.658;2023-06-14T16:21:37;3.47;;;1.92;;
74799;SDS011;63326;45.088;7.658;2023-06-14T16:24:04;4.45;;;2.00;;
74799;SDS011;63326;45.088;7.658;2023-06-14T16:26:31;3.72;;;2.15;;
74799;SDS011;63326;45.088;7.658;2023-06-14T16:29:00;3.63;;;1.73;;
74799;SDS011;63326;45.088;7.658;2023-06-14T16:31:27;4.22;;;1.65;;
74799;SDS011;63326;45.088;7.658;2023-06-14T16:33:56;2.70;;;1.20;;
74799;SDS011;63326;45.088;7.658;2023-06-14T16:36:25;3.20;;;1.60;;
74799;SDS011;63326;45.088;7.658;2023-06-14T16:38:51;3.92;;;1.90;;
74799;SDS011;63326;45.088;7.658;2023-06-14T16:41:18;3.40;;;2.00;;
74799;SDS011;63326;45.088;7.658;2023-06-14T16:43:45;3.13;;;1.67;;
74799;SDS011;63326;45.088;7.658;2023-06-14T16:46:13;3.35;;;1.90;;